sensor_id;sensor_type;location;lat;lon;timestamp;temperature;humidity
30648;DHT22;17683;53.360;9.736;2023-05-07T00:01:37;9.70;99.90
30648;DHT22;17683;53.360;9.736;2023-05-07T00:04:02;9.70;99.90
30648;DHT22;17683;53.360;9.736;2023-05-07T00:06:29;9.70;99.90
30648;DHT22;17683;53.360;9.736;2023-05-07T00:08:56;9.60;99.90
30648;DHT22;17683;53.360;9.736;2023-05-07T00:11:22;9.60;99.90
30648;DHT22;17683;53.360;9.736;2023-05-07T00:13:48;9.60;99.90
30648;DHT22;17683;53.360;9.736;2023-05-07T00:16:13;9.60;99.90
30648;DHT22;17683;53.360;9.736;2023-05-07T00:18:39;9.60;99.90
30648;DHT22;17683;53.360;9.736;2023-05-07T00:21:05;9.60;99.90
30648;DHT22;17683;53.360;9.736;2023-05-07T00:23:31;9.50;99.90
30648;DHT22;17683;53.360;9.736;2023-05-07T00:25:56;9.50;99.90
30648;DHT22;17683;53.360;9.736;2023-05-07T00:28:22;9.60;99.90
30648;DHT22;17683;53.360;9.736;2023-05-07T00:30:48;9.60;99.90
30648;DHT22;17683;53.360;9.736;2023-05-07T00:33:13;9.60;99.90
30648;DHT22;17683;53.360;9.736;2023-05-07T00:35:39;9.60;99.90
30648;DHT22;17683;53.360;9.736;2023-05-07T00:38:05;9.60;99.90
30648;DHT22;17683;53.360;9.736;2023-05-07T00:40:30;9.60;99.90
30648;DHT22;17683;53.360;9.736;2023-05-07T00:42:56;9.50;99.90
30648;DHT22;17683;53.360;9.736;2023-05-07T00:45:26;9.50;99.90
30648;DHT22;17683;53.360;9.736;2023-05-07T00:47:54;9.50;99.90
30648;DHT22;17683;53.360;9.736;2023-05-07T00:50:20;9.50;99.90
30648;DHT22;17683;53.360;9.736;2023-05-07T00:52:46;9.50;99.90
30648;DHT22;17683;53.360;9.736;2023-05-07T00:55:12;9.50;99.90
30648;DHT22;17683;53.360;9.736;2023-05-07T00:57:40;9.50;99.90
30648;DHT22;17683;53.360;9.736;2023-05-07T01:00:07;9.50;99.90
30648;DHT22;17683;53.360;9.736;2023-05-07T01:02:35;9.60;99.90
30648;DHT22;17683;53.360;9.736;2023-05-07T01:05:02;9.50;99.90
30648;DHT22;17683;53.360;9.736;2023-05-07T01:07:29;9.50;99.90
30648;DHT22;17683;53.360;9.736;2023-05-07T01:09:56;9.50;99.90
30648;DHT22;17683;53.360;9.736;2023-05-07T01:12:22;9.50;99.90
30648;DHT22;17683;53.360;9.736;2023-05-07T01:14:48;9.60;99.90
30648;DHT22;17683;53.360;9.736;2023-05-07T01:17:15;9.50;99.90
30648;DHT22;17683;53.360;9.736;2023-05-07T01:19:41;9.40;99.90
30648;DHT22;17683;53.360;9.736;2023-05-07T01:22:08;9.40;99.90
30648;DHT22;17683;53.360;9.736;2023-05-07T01:24:36;9.40;99.90
30648;DHT22;17683;53.360;9.736;2023-05-07T01:27:02;9.40;99.90
30648;DHT22;17683;53.360;9.736;2023-05-07T01:29:28;9.40;99.90
30648;DHT22;17683;53.360;9.736;2023-05-07T01:31:56;9.40;99.90
30648;DHT22;17683;53.360;9.736;2023-05-07T01:34:22;9.40;99.90
30648;DHT22;17683;53.360;9.736;2023-05-07T01:36:50;9.40;99.90
30648;DHT22;17683;53.360;9.736;2023-05-07T01:39:17;9.40;99.90
30648;DHT22;17683;53.360;9.736;2023-05-07T01:41:43;9.40;99.90
30648;DHT22;17683;53.360;9.736;2023-05-07T01:44:11;9.50;99.90
30648;DHT22;17683;53.360;9.736;2023-05-07T01:46:37;9.50;99.90
30648;DHT22;17683;53.360;9.736;2023-05-07T01:49:03;9.50;99.90
30648;DHT22;17683;53.360;9.736;2023-05-07T01:51:29;9.40;99.90
30648;DHT22;17683;53.360;9.736;2023-05-07T01:53:55;9.30;99.90
30648;DHT22;17683;53.360;9.736;2023-05-07T01:56:21;9.30;99.90
30648;DHT22;17683;53.360;9.736;2023-05-07T01:58:47;9.40;99.90
30648;DHT22;17683;53.360;9.736;2023-05-07T02:01:14;9.40;99.90
30648;DHT22;17683;53.360;9.736;2023-05-07T02:03:39;9.40;99.90
30648;DHT22;17683;53.360;9.736;2023-05-07T02:06:05;9.30;99.90
30648;DHT22;17683;53.360;9.736;2023-05-07T02:08:31;9.30;99.90
30648;DHT22;17683;53.360;9.736;2023-05-07T02:10:57;9.40;99.90
30648;DHT22;17683;53.360;9.736;2023-05-07T02:13:22;9.30;99.90
30648;DHT22;17683;53.360;9.736;2023-05-07T02:15:49;9.30;99.90
30648;DHT22;17683;53.360;9.736;2023-05-07T02:18:16;9.30;99.90
30648;DHT22;17683;53.360;9.736;2023-05-07T02:20:43;9.30;99.90
30648;DHT22;17683;53.360;9.736;2023-05-07T02:23:08;9.30;99.90
30648;DHT22;17683;53.360;9.736;2023-05-07T02:25:34;9.20;99.90
30648;DHT22;17683;53.360;9.736;2023-05-07T02:28:00;9.30;99.90
30648;DHT22;17683;53.360;9.736;2023-05-07T02:30:25;9.30;99.90
30648;DHT22;17683;53.360;9.736;2023-05-07T02:32:51;9.30;99.90
30648;DHT22;17683;53.360;9.736;2023-05-07T02:35:17;9.30;99.90
30648;DHT22;17683;53.360;9.736;2023-05-07T02:37:43;9.30;99.90
30648;DHT22;17683;53.360;9.736;2023-05-07T02:40:09;9.30;99.90
30648;DHT22;17683;53.360;9.736;2023-05-07T02:42:35;9.30;99.90
30648;DHT22;17683;53.360;9.736;2023-05-07T02:45:01;9.30;99.90
30648;DHT22;17683;53.360;9.736;2023-05-07T02:47:27;9.30;99.90
30648;DHT22;17683;53.360;9.736;2023-05-07T02:49:54;9.30;99.90
30648;DHT22;17683;53.360;9.736;2023-05-07T02:52:20;9.40;99.90
30648;DHT22;17683;53.360;9.736;2023-05-07T02:54:46;9.30;99.90
30648;DHT22;17683;53.360;9.736;2023-05-07T02:57:11;9.40;99.90
30648;DHT22;17683;53.360;9.736;2023-05-07T02:59:37;9.30;99.90
30648;DHT22;17683;53.360;9.736;2023-05-07T03:02:03;9.30;99.90
30648;DHT22;17683;53.360;9.736;2023-05-07T03:04:29;9.40;99.90
30648;DHT22;17683;53.360;9.736;2023-05-07T03:06:54;9.40;99.90
30648;DHT22;17683;53.360;9.736;2023-05-07T03:09:20;9.40;99.90
30648;DHT22;17683;53.360;9.736;2023-05-07T03:11:46;9.40;99.90
30648;DHT22;17683;53.360;9.736;2023-05-07T03:14:11;9.40;99.90
30648;DHT22;17683;53.360;9.736;2023-05-07T03:16:38;9.40;99.90
30648;DHT22;17683;53.360;9.736;2023-05-07T03:19:03;9.40;99.90
30648;DHT22;17683;53.360;9.736;2023-05-07T03:21:30;9.40;99.90
30648;DHT22;17683;53.360;9.736;2023-05-07T03:23:56;9.40;99.90
30648;DHT22;17683;53.360;9.736;2023-05-07T03:26:22;9.30;99.90
30648;DHT22;17683;53.360;9.736;2023-05-07T03:28:47;9.30;99.90
30648;DHT22;17683;53.360;9.736;2023-05-07T03:31:13;9.30;99.90
30648;DHT22;17683;53.360;9.736;2023-05-07T03:33:52;9.40;99.90
30648;DHT22;17683;53.360;9.736;2023-05-07T03:36:19;9.30;99.90
30648;DHT22;17683;53.360;9.736;2023-05-07T03:38:45;9.40;99.90
30648;DHT22;17683;53.360;9.736;2023-05-07T03:41:11;9.30;99.90
30648;DHT22;17683;53.360;9.736;2023-05-07T03:43:36;9.30;99.90
30648;DHT22;17683;53.360;9.736;2023-05-07T03:46:02;9.30;99.90
30648;DHT22;17683;53.360;9.736;2023-05-07T03:48:28;9.40;99.90
30648;DHT22;17683;53.360;9.736;2023-05-07T03:50:53;9.30;99.90
30648;DHT22;17683;53.360;9.736;2023-05-07T03:53:19;9.30;99.90
30648;DHT22;17683;53.360;9.736;2023-05-07T03:55:45;9.30;99.90
30648;DHT22;17683;53.360;9.736;2023-05-07T03:58:11;9.30;99.90
30648;DHT22;17683;53.360;9.736;2023-05-07T04:00:36;9.30;99.90
30648;DHT22;17683;53.360;9.736;2023-05-07T04:03:06;9.30;99.90
30648;DHT22;17683;53.360;9.736;2023-05-07T04:05:31;9.20;99.90
30648;DHT22;17683;53.360;9.736;2023-05-07T04:07:58;9.20;99.90
30648;DHT22;17683;53.360;9.736;2023-05-07T04:10:24;9.20;99.90
30648;DHT22;17683;53.360;9.736;2023-05-07T04:12:50;9.20;99.90
30648;DHT22;17683;53.360;9.736;2023-05-07T04:15:16;9.20;99.90
30648;DHT22;17683;53.360;9.736;2023-05-07T04:17:41;9.20;99.90
30648;DHT22;17683;53.360;9.736;2023-05-07T04:20:14;9.30;99.90
30648;DHT22;17683;53.360;9.736;2023-05-07T04:22:40;9.30;99.90
30648;DHT22;17683;53.360;9.736;2023-05-07T04:25:06;9.30;99.90
30648;DHT22;17683;53.360;9.736;2023-05-07T04:27:33;9.20;99.90
30648;DHT22;17683;53.360;9.736;2023-05-07T04:29:59;9.30;99.90
30648;DHT22;17683;53.360;9.736;2023-05-07T04:32:26;9.30;99.90
30648;DHT22;17683;53.360;9.736;2023-05-07T04:34:52;9.30;99.90
30648;DHT22;17683;53.360;9.736;2023-05-07T04:37:18;9.30;99.90
30648;DHT22;17683;53.360;9.736;2023-05-07T04:39:44;9.40;99.90
30648;DHT22;17683;53.360;9.736;2023-05-07T04:42:09;9.40;99.90
30648;DHT22;17683;53.360;9.736;2023-05-07T04:44:39;9.40;99.90
30648;DHT22;17683;53.360;9.736;2023-05-07T04:47:05;9.40;99.90
30648;DHT22;17683;53.360;9.736;2023-05-07T04:49:31;9.40;99.90
30648;DHT22;17683;53.360;9.736;2023-05-07T04:51:57;9.40;99.90
30648;DHT22;17683;53.360;9.736;2023-05-07T04:54:23;9.50;99.90
30648;DHT22;17683;53.360;9.736;2023-05-07T04:56:48;9.50;99.90
30648;DHT22;17683;53.360;9.736;2023-05-07T04:59:14;9.50;99.90
30648;DHT22;17683;53.360;9.736;2023-05-07T05:01:40;9.50;99.90
30648;DHT22;17683;53.360;9.736;2023-05-07T05:04:05;9.50;99.90
30648;DHT22;17683;53.360;9.736;2023-05-07T05:06:31;9.40;99.90
30648;DHT22;17683;53.360;9.736;2023-05-07T05:08:57;9.40;99.90
30648;DHT22;17683;53.360;9.736;2023-05-07T05:11:23;9.50;99.90
30648;DHT22;17683;53.360;9.736;2023-05-07T05:13:49;9.50;99.90
30648;DHT22;17683;53.360;9.736;2023-05-07T05:16:15;9.50;99.90
30648;DHT22;17683;53.360;9.736;2023-05-07T05:18:41;9.50;99.90
30648;DHT22;17683;53.360;9.736;2023-05-07T05:21:06;9.50;99.90
30648;DHT22;17683;53.360;9.736;2023-05-07T05:23:32;9.50;99.90
30648;DHT22;17683;53.360;9.736;2023-05-07T05:25:58;9.40;99.90
30648;DHT22;17683;53.360;9.736;2023-05-07T05:28:24;9.40;99.90
30648;DHT22;17683;53.360;9.736;2023-05-07T05:30:50;9.50;99.90
30648;DHT22;17683;53.360;9.736;2023-05-07T05:33:16;9.50;99.90
30648;DHT22;17683;53.360;9.736;2023-05-07T05:35:42;9.60;99.90
30648;DHT22;17683;53.360;9.736;2023-05-07T05:38:08;9.60;99.90
30648;DHT22;17683;53.360;9.736;2023-05-07T05:40:33;9.60;99.90
30648;DHT22;17683;53.360;9.736;2023-05-07T05:42:59;9.60;99.90
30648;DHT22;17683;53.360;9.736;2023-05-07T05:45:25;9.60;99.90
30648;DHT22;17683;53.360;9.736;2023-05-07T05:47:51;9.50;99.90
30648;DHT22;17683;53.360;9.736;2023-05-07T05:50:17;9.50;99.90
30648;DHT22;17683;53.360;9.736;2023-05-07T05:52:43;9.40;99.90
30648;DHT22;17683;53.360;9.736;2023-05-07T05:55:09;9.50;99.90
30648;DHT22;17683;53.360;9.736;2023-05-07T05:57:35;9.50;99.90
30648;DHT22;17683;53.360;9.736;2023-05-07T06:00:01;9.60;99.90
30648;DHT22;17683;53.360;9.736;2023-05-07T06:02:28;9.60;99.90
30648;DHT22;17683;53.360;9.736;2023-05-07T06:04:53;9.50;99.90
30648;DHT22;17683;53.360;9.736;2023-05-07T06:07:19;9.50;99.90
30648;DHT22;17683;53.360;9.736;2023-05-07T06:09:45;9.60;99.90
30648;DHT22;17683;53.360;9.736;2023-05-07T06:12:11;9.60;99.90
30648;DHT22;17683;53.360;9.736;2023-05-07T06:14:37;9.50;99.90
30648;DHT22;17683;53.360;9.736;2023-05-07T06:17:03;9.60;99.90
30648;DHT22;17683;53.360;9.736;2023-05-07T06:19:29;9.60;99.90
30648;DHT22;17683;53.360;9.736;2023-05-07T06:21:54;9.70;99.90
30648;DHT22;17683;53.360;9.736;2023-05-07T06:24:22;9.70;99.90
30648;DHT22;17683;53.360;9.736;2023-05-07T06:26:48;9.70;99.90
30648;DHT22;17683;53.360;9.736;2023-05-07T06:29:13;9.80;99.90
30648;DHT22;17683;53.360;9.736;2023-05-07T06:31:39;9.70;99.90
30648;DHT22;17683;53.360;9.736;2023-05-07T06:34:05;9.80;99.90
30648;DHT22;17683;53.360;9.736;2023-05-07T06:36:30;9.80;99.90
30648;DHT22;17683;53.360;9.736;2023-05-07T06:38:56;9.80;99.90
30648;DHT22;17683;53.360;9.736;2023-05-07T06:41:22;9.80;99.90
30648;DHT22;17683;53.360;9.736;2023-05-07T06:43:48;9.80;99.90
30648;DHT22;17683;53.360;9.736;2023-05-07T06:46:13;9.80;99.90
30648;DHT22;17683;53.360;9.736;2023-05-07T06:48:39;9.90;99.90
30648;DHT22;17683;53.360;9.736;2023-05-07T06:51:05;9.80;99.90
30648;DHT22;17683;53.360;9.736;2023-05-07T06:53:30;9.90;99.90
30648;DHT22;17683;53.360;9.736;2023-05-07T06:55:57;10.00;99.90
30648;DHT22;17683;53.360;9.736;2023-05-07T06:58:22;10.10;99.90
30648;DHT22;17683;53.360;9.736;2023-05-07T07:00:48;10.10;99.90
30648;DHT22;17683;53.360;9.736;2023-05-07T07:03:14;10.20;99.90
30648;DHT22;17683;53.360;9.736;2023-05-07T07:05:43;10.20;99.90
30648;DHT22;17683;53.360;9.736;2023-05-07T07:08:09;10.20;99.90
30648;DHT22;17683;53.360;9.736;2023-05-07T07:10:36;10.30;99.90
30648;DHT22;17683;53.360;9.736;2023-05-07T07:13:01;10.20;99.90
30648;DHT22;17683;53.360;9.736;2023-05-07T07:15:27;10.30;99.90
30648;DHT22;17683;53.360;9.736;2023-05-07T07:17:53;10.30;99.90
30648;DHT22;17683;53.360;9.736;2023-05-07T07:20:18;10.40;99.90
30648;DHT22;17683;53.360;9.736;2023-05-07T07:22:44;10.40;99.90
30648;DHT22;17683;53.360;9.736;2023-05-07T07:25:10;10.50;99.90
30648;DHT22;17683;53.360;9.736;2023-05-07T07:27:36;10.50;99.90
30648;DHT22;17683;53.360;9.736;2023-05-07T07:30:02;10.50;99.90
30648;DHT22;17683;53.360;9.736;2023-05-07T07:32:28;10.60;99.90
30648;DHT22;17683;53.360;9.736;2023-05-07T07:34:54;10.60;99.90
30648;DHT22;17683;53.360;9.736;2023-05-07T07:37:20;10.60;99.90
30648;DHT22;17683;53.360;9.736;2023-05-07T07:39:45;10.70;99.90
30648;DHT22;17683;53.360;9.736;2023-05-07T07:42:11;10.70;99.90
30648;DHT22;17683;53.360;9.736;2023-05-07T07:44:37;10.70;99.90
30648;DHT22;17683;53.360;9.736;2023-05-07T07:47:04;10.80;99.90
30648;DHT22;17683;53.360;9.736;2023-05-07T07:49:30;10.80;99.90
30648;DHT22;17683;53.360;9.736;2023-05-07T07:51:56;10.90;99.90
30648;DHT22;17683;53.360;9.736;2023-05-07T07:54:22;10.90;99.90
30648;DHT22;17683;53.360;9.736;2023-05-07T07:56:47;11.00;99.90
30648;DHT22;17683;53.360;9.736;2023-05-07T07:59:13;11.00;99.90
30648;DHT22;17683;53.360;9.736;2023-05-07T08:01:43;11.00;99.90
30648;DHT22;17683;53.360;9.736;2023-05-07T08:04:08;11.00;99.90
30648;DHT22;17683;53.360;9.736;2023-05-07T08:06:34;11.00;99.90
30648;DHT22;17683;53.360;9.736;2023-05-07T08:09:00;11.10;99.90
30648;DHT22;17683;53.360;9.736;2023-05-07T08:11:26;11.10;99.90
30648;DHT22;17683;53.360;9.736;2023-05-07T08:13:51;11.20;99.90
30648;DHT22;17683;53.360;9.736;2023-05-07T08:16:18;11.20;99.90
30648;DHT22;17683;53.360;9.736;2023-05-07T08:18:43;11.10;99.90
30648;DHT22;17683;53.360;9.736;2023-05-07T08:21:09;11.20;99.90
30648;DHT22;17683;53.360;9.736;2023-05-07T08:23:36;11.20;99.90
30648;DHT22;17683;53.360;9.736;2023-05-07T08:26:02;11.20;99.90
30648;DHT22;17683;53.360;9.736;2023-05-07T08:28:27;11.30;99.90
30648;DHT22;17683;53.360;9.736;2023-05-07T08:30:53;11.30;99.90
30648;DHT22;17683;53.360;9.736;2023-05-07T08:33:19;11.40;99.90
30648;DHT22;17683;53.360;9.736;2023-05-07T08:35:45;11.40;99.90
30648;DHT22;17683;53.360;9.736;2023-05-07T08:38:10;11.40;99.90
30648;DHT22;17683;53.360;9.736;2023-05-07T08:40:38;11.50;99.90
30648;DHT22;17683;53.360;9.736;2023-05-07T08:43:08;11.50;99.90
30648;DHT22;17683;53.360;9.736;2023-05-07T08:45:34;11.60;99.90
30648;DHT22;17683;53.360;9.736;2023-05-07T08:48:09;11.60;99.90
30648;DHT22;17683;53.360;9.736;2023-05-07T08:50:35;11.70;99.90
30648;DHT22;17683;53.360;9.736;2023-05-07T08:53:03;11.60;99.90
30648;DHT22;17683;53.360;9.736;2023-05-07T08:55:29;11.70;99.90
30648;DHT22;17683;53.360;9.736;2023-05-07T08:57:55;11.80;99.90
30648;DHT22;17683;53.360;9.736;2023-05-07T09:00:21;11.80;99.90
30648;DHT22;17683;53.360;9.736;2023-05-07T09:02:47;11.70;99.90
30648;DHT22;17683;53.360;9.736;2023-05-07T09:05:13;11.80;99.90
30648;DHT22;17683;53.360;9.736;2023-05-07T09:07:39;11.90;99.90
30648;DHT22;17683;53.360;9.736;2023-05-07T09:10:05;11.90;99.90
30648;DHT22;17683;53.360;9.736;2023-05-07T09:12:31;12.00;99.90
30648;DHT22;17683;53.360;9.736;2023-05-07T09:14:58;12.10;99.90
30648;DHT22;17683;53.360;9.736;2023-05-07T09:17:24;12.10;99.90
30648;DHT22;17683;53.360;9.736;2023-05-07T09:19:50;12.10;99.90
30648;DHT22;17683;53.360;9.736;2023-05-07T09:22:16;12.20;99.90
30648;DHT22;17683;53.360;9.736;2023-05-07T09:24:47;12.10;99.90
30648;DHT22;17683;53.360;9.736;2023-05-07T09:27:13;12.20;99.90
30648;DHT22;17683;53.360;9.736;2023-05-07T09:29:39;12.10;99.90
30648;DHT22;17683;53.360;9.736;2023-05-07T09:32:06;12.30;99.90
30648;DHT22;17683;53.360;9.736;2023-05-07T09:34:32;12.30;99.90
30648;DHT22;17683;53.360;9.736;2023-05-07T09:37:01;12.40;99.90
30648;DHT22;17683;53.360;9.736;2023-05-07T09:39:42;12.30;99.90
30648;DHT22;17683;53.360;9.736;2023-05-07T09:42:07;12.40;99.90
30648;DHT22;17683;53.360;9.736;2023-05-07T09:44:34;12.40;99.90
30648;DHT22;17683;53.360;9.736;2023-05-07T09:47:00;12.50;99.90
30648;DHT22;17683;53.360;9.736;2023-05-07T09:49:29;12.40;99.90
30648;DHT22;17683;53.360;9.736;2023-05-07T09:51:55;12.50;99.90
30648;DHT22;17683;53.360;9.736;2023-05-07T09:54:22;12.50;99.90
30648;DHT22;17683;53.360;9.736;2023-05-07T09:56:48;12.70;99.90
30648;DHT22;17683;53.360;9.736;2023-05-07T09:59:15;12.80;99.90
30648;DHT22;17683;53.360;9.736;2023-05-07T10:01:43;13.00;99.90
30648;DHT22;17683;53.360;9.736;2023-05-07T10:04:10;13.00;99.90
30648;DHT22;17683;53.360;9.736;2023-05-07T10:06:37;13.00;99.90
30648;DHT22;17683;53.360;9.736;2023-05-07T10:09:06;13.10;99.90
30648;DHT22;17683;53.360;9.736;2023-05-07T10:11:33;13.00;99.90
30648;DHT22;17683;53.360;9.736;2023-05-07T10:13:59;13.00;99.90
30648;DHT22;17683;53.360;9.736;2023-05-07T10:16:34;13.00;99.90
30648;DHT22;17683;53.360;9.736;2023-05-07T10:19:05;13.00;99.90
30648;DHT22;17683;53.360;9.736;2023-05-07T10:21:36;13.00;99.90
30648;DHT22;17683;53.360;9.736;2023-05-07T10:24:08;13.00;99.90
30648;DHT22;17683;53.360;9.736;2023-05-07T10:26:45;13.00;99.90
30648;DHT22;17683;53.360;9.736;2023-05-07T10:32:15;13.00;99.90
30648;DHT22;17683;53.360;9.736;2023-05-07T10:34:48;13.10;99.90
30648;DHT22;17683;53.360;9.736;2023-05-07T10:37:15;13.20;99.90
30648;DHT22;17683;53.360;9.736;2023-05-07T10:39:41;13.10;99.90
30648;DHT22;17683;53.360;9.736;2023-05-07T10:42:11;13.30;99.90
30648;DHT22;17683;53.360;9.736;2023-05-07T10:44:37;13.40;99.90
30648;DHT22;17683;53.360;9.736;2023-05-07T10:47:07;13.40;99.90
30648;DHT22;17683;53.360;9.736;2023-05-07T10:49:36;13.50;99.90
30648;DHT22;17683;53.360;9.736;2023-05-07T10:52:17;13.50;99.90
30648;DHT22;17683;53.360;9.736;2023-05-07T10:54:44;13.60;99.90
30648;DHT22;17683;53.360;9.736;2023-05-07T10:57:42;13.60;99.90
30648;DHT22;17683;53.360;9.736;2023-05-07T11:05:31;14.00;99.90
30648;DHT22;17683;53.360;9.736;2023-05-07T11:08:01;14.10;99.90
30648;DHT22;17683;53.360;9.736;2023-05-07T11:10:56;14.20;99.90
30648;DHT22;17683;53.360;9.736;2023-05-07T11:13:42;14.20;99.90
30648;DHT22;17683;53.360;9.736;2023-05-07T11:16:23;14.40;99.90
30648;DHT22;17683;53.360;9.736;2023-05-07T11:18:51;14.50;99.90
30648;DHT22;17683;53.360;9.736;2023-05-07T11:21:36;14.50;99.90
30648;DHT22;17683;53.360;9.736;2023-05-07T11:24:03;14.50;99.90
30648;DHT22;17683;53.360;9.736;2023-05-07T11:26:31;14.50;99.90
30648;DHT22;17683;53.360;9.736;2023-05-07T11:29:17;14.50;99.90
30648;DHT22;17683;53.360;9.736;2023-05-07T11:31:43;14.30;99.90
30648;DHT22;17683;53.360;9.736;2023-05-07T11:34:09;14.20;99.90
30648;DHT22;17683;53.360;9.736;2023-05-07T11:36:36;14.10;99.90
30648;DHT22;17683;53.360;9.736;2023-05-07T11:39:23;14.20;99.90
30648;DHT22;17683;53.360;9.736;2023-05-07T11:41:49;14.20;99.90
30648;DHT22;17683;53.360;9.736;2023-05-07T11:44:15;14.30;99.90
30648;DHT22;17683;53.360;9.736;2023-05-07T11:46:43;14.10;99.90
30648;DHT22;17683;53.360;9.736;2023-05-07T11:49:09;14.20;99.90
30648;DHT22;17683;53.360;9.736;2023-05-07T11:51:35;14.30;99.90
30648;DHT22;17683;53.360;9.736;2023-05-07T11:54:03;14.20;99.90
30648;DHT22;17683;53.360;9.736;2023-05-07T11:56:34;14.20;99.90
30648;DHT22;17683;53.360;9.736;2023-05-07T11:59:01;14.20;99.90
30648;DHT22;17683;53.360;9.736;2023-05-07T12:01:27;14.30;99.90
30648;DHT22;17683;53.360;9.736;2023-05-07T12:03:55;14.60;99.90
30648;DHT22;17683;53.360;9.736;2023-05-07T12:06:22;14.60;99.90
30648;DHT22;17683;53.360;9.736;2023-05-07T12:08:47;14.70;99.90
30648;DHT22;17683;53.360;9.736;2023-05-07T12:11:24;14.80;99.90
30648;DHT22;17683;53.360;9.736;2023-05-07T12:13:50;15.00;99.90
30648;DHT22;17683;53.360;9.736;2023-05-07T12:16:16;15.00;99.90
30648;DHT22;17683;53.360;9.736;2023-05-07T12:18:43;15.10;99.90
30648;DHT22;17683;53.360;9.736;2023-05-07T12:21:09;15.20;99.90
30648;DHT22;17683;53.360;9.736;2023-05-07T12:23:36;15.40;99.90
30648;DHT22;17683;53.360;9.736;2023-05-07T12:26:03;15.40;99.90
30648;DHT22;17683;53.360;9.736;2023-05-07T12:28:28;15.60;99.90
30648;DHT22;17683;53.360;9.736;2023-05-07T12:30:56;15.60;99.90
30648;DHT22;17683;53.360;9.736;2023-05-07T12:33:26;15.70;99.90
30648;DHT22;17683;53.360;9.736;2023-05-07T12:35:54;15.60;99.90
30648;DHT22;17683;53.360;9.736;2023-05-07T12:38:20;15.60;99.90
30648;DHT22;17683;53.360;9.736;2023-05-07T12:40:49;15.60;99.90
30648;DHT22;17683;53.360;9.736;2023-05-07T12:43:20;15.60;99.90
30648;DHT22;17683;53.360;9.736;2023-05-07T12:45:50;15.70;99.90
30648;DHT22;17683;53.360;9.736;2023-05-07T12:48:17;15.60;99.90
30648;DHT22;17683;53.360;9.736;2023-05-07T12:50:44;15.80;99.90
30648;DHT22;17683;53.360;9.736;2023-05-07T12:53:11;15.60;99.90
30648;DHT22;17683;53.360;9.736;2023-05-07T12:55:45;15.70;99.90
30648;DHT22;17683;53.360;9.736;2023-05-07T12:58:32;15.70;99.90
30648;DHT22;17683;53.360;9.736;2023-05-07T13:01:00;15.70;99.90
30648;DHT22;17683;53.360;9.736;2023-05-07T13:03:30;15.60;99.90
30648;DHT22;17683;53.360;9.736;2023-05-07T13:06:02;15.50;99.90
30648;DHT22;17683;53.360;9.736;2023-05-07T13:08:33;15.40;99.90
30648;DHT22;17683;53.360;9.736;2023-05-07T13:11:00;15.40;99.90
30648;DHT22;17683;53.360;9.736;2023-05-07T13:13:29;15.50;99.90
30648;DHT22;17683;53.360;9.736;2023-05-07T13:15:59;15.50;99.90
30648;DHT22;17683;53.360;9.736;2023-05-07T13:18:28;15.60;99.90
30648;DHT22;17683;53.360;9.736;2023-05-07T13:20:54;15.80;99.90
30648;DHT22;17683;53.360;9.736;2023-05-07T13:23:20;15.80;99.90
30648;DHT22;17683;53.360;9.736;2023-05-07T13:25:46;15.40;99.90
30648;DHT22;17683;53.360;9.736;2023-05-07T13:28:12;15.30;99.90
30648;DHT22;17683;53.360;9.736;2023-05-07T13:30:38;15.40;99.90
30648;DHT22;17683;53.360;9.736;2023-05-07T13:33:04;15.20;99.90
30648;DHT22;17683;53.360;9.736;2023-05-07T13:35:29;15.30;99.90
30648;DHT22;17683;53.360;9.736;2023-05-07T13:37:55;15.30;99.90
30648;DHT22;17683;53.360;9.736;2023-05-07T13:40:22;15.50;99.90
30648;DHT22;17683;53.360;9.736;2023-05-07T13:42:48;15.60;99.90
30648;DHT22;17683;53.360;9.736;2023-05-07T13:45:18;15.70;99.90
30648;DHT22;17683;53.360;9.736;2023-05-07T13:47:45;15.80;99.90
30648;DHT22;17683;53.360;9.736;2023-05-07T13:50:11;15.60;99.90
30648;DHT22;17683;53.360;9.736;2023-05-07T13:52:41;15.60;99.90
30648;DHT22;17683;53.360;9.736;2023-05-07T13:55:09;15.50;99.90
30648;DHT22;17683;53.360;9.736;2023-05-07T13:57:36;15.50;99.90
30648;DHT22;17683;53.360;9.736;2023-05-07T14:00:02;15.50;99.90
30648;DHT22;17683;53.360;9.736;2023-05-07T14:02:30;15.50;99.90
30648;DHT22;17683;53.360;9.736;2023-05-07T14:04:56;15.50;99.90
30648;DHT22;17683;53.360;9.736;2023-05-07T14:07:21;15.70;99.90
30648;DHT22;17683;53.360;9.736;2023-05-07T14:09:47;15.80;99.90
30648;DHT22;17683;53.360;9.736;2023-05-07T14:12:13;15.90;99.90
30648;DHT22;17683;53.360;9.736;2023-05-07T14:14:38;16.10;99.90
30648;DHT22;17683;53.360;9.736;2023-05-07T14:17:04;16.20;99.90
30648;DHT22;17683;53.360;9.736;2023-05-07T14:19:30;16.20;99.90
30648;DHT22;17683;53.360;9.736;2023-05-07T14:21:55;16.10;99.90
30648;DHT22;17683;53.360;9.736;2023-05-07T14:24:21;16.10;99.90
30648;DHT22;17683;53.360;9.736;2023-05-07T14:26:47;16.10;99.90
30648;DHT22;17683;53.360;9.736;2023-05-07T14:29:13;16.00;99.90
30648;DHT22;17683;53.360;9.736;2023-05-07T14:31:40;16.00;99.90
30648;DHT22;17683;53.360;9.736;2023-05-07T14:34:06;15.90;99.90
30648;DHT22;17683;53.360;9.736;2023-05-07T14:36:32;15.90;99.90
30648;DHT22;17683;53.360;9.736;2023-05-07T14:38:58;15.90;99.90
30648;DHT22;17683;53.360;9.736;2023-05-07T14:41:24;15.80;99.90
30648;DHT22;17683;53.360;9.736;2023-05-07T14:43:50;15.90;99.90
30648;DHT22;17683;53.360;9.736;2023-05-07T14:46:19;15.90;99.90
30648;DHT22;17683;53.360;9.736;2023-05-07T14:48:51;15.90;99.90
30648;DHT22;17683;53.360;9.736;2023-05-07T14:51:16;16.00;99.90
30648;DHT22;17683;53.360;9.736;2023-05-07T14:53:42;16.10;99.90
30648;DHT22;17683;53.360;9.736;2023-05-07T14:56:08;16.10;99.90
30648;DHT22;17683;53.360;9.736;2023-05-07T14:58:34;16.10;99.90
30648;DHT22;17683;53.360;9.736;2023-05-07T15:01:00;16.10;99.90
30648;DHT22;17683;53.360;9.736;2023-05-07T15:03:26;16.10;99.90
30648;DHT22;17683;53.360;9.736;2023-05-07T15:05:52;16.20;99.90
30648;DHT22;17683;53.360;9.736;2023-05-07T15:08:18;16.20;99.90
30648;DHT22;17683;53.360;9.736;2023-05-07T15:10:44;16.30;99.90
30648;DHT22;17683;53.360;9.736;2023-05-07T15:13:10;16.30;99.90
30648;DHT22;17683;53.360;9.736;2023-05-07T15:15:37;16.30;99.90
30648;DHT22;17683;53.360;9.736;2023-05-07T15:18:03;16.20;99.90
30648;DHT22;17683;53.360;9.736;2023-05-07T15:20:29;16.20;99.90
30648;DHT22;17683;53.360;9.736;2023-05-07T15:22:55;16.10;99.90
30648;DHT22;17683;53.360;9.736;2023-05-07T15:25:21;16.20;99.90
30648;DHT22;17683;53.360;9.736;2023-05-07T15:27:47;16.30;99.90
30648;DHT22;17683;53.360;9.736;2023-05-07T15:30:13;16.20;99.90
30648;DHT22;17683;53.360;9.736;2023-05-07T15:32:41;16.20;99.90
30648;DHT22;17683;53.360;9.736;2023-05-07T15:35:07;16.30;99.90
30648;DHT22;17683;53.360;9.736;2023-05-07T15:37:33;16.40;99.90
30648;DHT22;17683;53.360;9.736;2023-05-07T15:39:59;16.40;99.90
30648;DHT22;17683;53.360;9.736;2023-05-07T15:42:25;16.40;99.90
30648;DHT22;17683;53.360;9.736;2023-05-07T15:44:50;16.40;99.90